Monday, September 22, 2014
08:18 UTC
  |  Log In   |  Register Free
Airport Search:

Henderson Field Airport
(KACZ)

Henderson Field Airport Diagram
No Airport Diagram Available

FAA data valid effective September 18, 2014 - November 13, 2014 (unless otherwise noted).

 
 
 
 
 
 
 
 
 
 
 
 
 
 

Current Aviation Weather for Henderson Field Airport (KACZ)

METAR data is unavailable for ACZ. The nearest METAR location is at KDPL (17 nm NE from ACZ).

The most recent METAR observation for KDPL was updated at: 0808
METAR Summary (Translated METAR)
KDPL
220755Z AUTO 26006KT 10SM BKN070 BKN090 OVC110 23/18 A2989 RMK AO2 T02290177
(17 nm NE from KACZ)
KOAJ
220755Z AUTO 24005KT 10SM FEW060 FEW100 21/17 A2988 RMK AO1
(20.4 nm NE from KACZ)
TAF Summary (Translated TAF)
KOAJ
(20.9 nm SE from KDPL)
220544Z 2206/2306 23007KT P6SM SCT070 FM221200 36007KT P6SM SCT050 FM230000 04004KT P6SM SCT050 BKN100 AMD LTD TO CLD VIS AND WIND
  Airport Weather Conditions for KACZ

Current weather conditions are
not available for ACZ


The nearest NOAA weather station
is at DPL, (17 nm NE from ACZ)
  
 Current Weather at DPL
73° F
Overcast
Southwest winds at 6.9 mph
DPL NOAA Radar

Pressure: 29.88 in
Humidity: 72%
Wind: Southwest at 6.9 MPH (6 KT)
Dew Point: 63.9°F
Visibility: 10.00 mi


Airport Weather Forecast for KACZ

Translated METAR and TAF for KDPL
Translated METAR for KDPL (0812 UTC 22 September 2014)
found at http://aviationweather.gov/adds/metars/
 
METAR text: KDPL 220755Z AUTO 26006KT 10SM BKN070 BKN090 OVC110 23/18 A2989 RMK AO2 T02290177
Conditions at: KDPL (KENANSVILLE/DUPL, NC, US) observed 0755 UTC 22 September 2014
Temperature: 22.9°C (73°F)
Dewpoint: 17.7°C (64°F) [RH = 73%]
Pressure (altimeter): 29.89 inches Hg (1012.3 mb)
Winds: from the W (260 degrees) at 7 MPH (6 knots; 3.1 m/s)
Visibility: 10 or more miles (16+ km)
Ceiling: 7000 feet AGL
Clouds: broken clouds at 7000 feet AGL
broken clouds at 9000 feet AGL
overcast cloud deck at 11000 feet AGL
Weather: automated observation with no human augmentation;
there may or may not be significant weather present at this time
Translated TAF for KDPL

There is no translated TAF available for this airport

Find All Airport Services Find A Hotel Find A Rental Car Find A Golf Course Find A Restaurant $100 Hamburger



FBO's on the Field
FBO Company Facility Photos Services Transportation Aviation Fuel Prices: Prices include tax
Catering Weather Repair Courtesy Rental Type 100LL JetA JetA+ MOGAS 8087
 
Henderson Field

This FBO has not yet been rated
FS:Phillips66
Last Updated: Aug-18
Login to update fuel prices
SS:
Contact Henderson FieldMore FBO Information
 
Add another FBO Facility Photos Catering Weather Repair Courtesy Rental Type 100LL JetA JetA+ MOGAS 8087
Services Transportation Aviation Fuel Prices: Prices include tax


model-print
model-print
model-print
model-print